Aviation Digital Data Service (ADDS)

Output produced by METARs form (0544 UTC 19 March 2019)
found at http://www.aviationweather.gov/metar/data/
 
METAR text: CYFC 190500Z AUTO 28002KT 9SM CLR M11/M12 A3024 RMK SLP242
Conditions at: CYFC (FREDERICTON AIRP, NB, CA) observed 0500 UTC 19 March 2019
Temperature: -11.0°C (12°F)
Dewpoint: -12.0°C (10°F) [RH = 92%]
Pressure (altimeter): 30.24 inches Hg (1024.1 mb)
[Sea-level pressure: 1024.2 mb]
Winds: from the W (280 degrees) at 2 MPH (2 knots; 1.0 m/s)
Visibility: 9 miles (14 km)
Ceiling: at least 12,000 feet AGL
Clouds: sky clear below 12,000 feet AGL
Weather: no significant weather observed at this time

METAR text: CYFC 190400Z AUTO 01003KT 9SM CLR M10/M12 A3022 RMK SLP238
Conditions at: CYFC (FREDERICTON AIRP, NB, CA) observed 0400 UTC 19 March 2019
Temperature: -10.0°C (14°F)
Dewpoint: -12.0°C (10°F) [RH = 85%]
Pressure (altimeter): 30.22 inches Hg (1023.5 mb)
[Sea-level pressure: 1023.8 mb]
Winds: from the N (10 degrees) at 3 MPH (3 knots; 1.5 m/s)
Visibility: 9 miles (14 km)
Ceiling: at least 12,000 feet AGL
Clouds: sky clear below 12,000 feet AGL
Weather: no significant weather observed at this time

METAR text: CYFC 190300Z AUTO 00000KT 9SM CLR M09/M12 A3022 RMK SLP236
Conditions at: CYFC (FREDERICTON AIRP, NB, CA) observed 0300 UTC 19 March 2019
Temperature: -9.0°C (16°F)
Dewpoint: -12.0°C (10°F) [RH = 79%]
Pressure (altimeter): 30.22 inches Hg (1023.5 mb)
[Sea-level pressure: 1023.6 mb]
Winds: calm
Visibility: 9 miles (14 km)
Ceiling: at least 12,000 feet AGL
Clouds: sky clear below 12,000 feet AGL
Weather: no significant weather observed at this time

METAR text: CYFC 190200Z AUTO VRB02KT 9SM CLR M08/M11 A3020 RMK SLP231
Conditions at: CYFC (FREDERICTON AIRP, NB, CA) observed 0200 UTC 19 March 2019
Temperature: -8.0°C (18°F)
Dewpoint: -11.0°C (12°F) [RH = 79%]
Pressure (altimeter): 30.20 inches Hg (1022.8 mb)
[Sea-level pressure: 1023.1 mb]
Winds: variable direction winds at 2 MPH (2 knots; 1.0 m/s)
Visibility: 9 miles (14 km)
Ceiling: at least 12,000 feet AGL
Clouds: sky clear below 12,000 feet AGL
Weather: no significant weather observed at this time

METAR text: CYFC 190100Z AUTO VRB02KT 9SM CLR M07/M10 A3018 RMK SLP224
Conditions at: CYFC (FREDERICTON AIRP, NB, CA) observed 0100 UTC 19 March 2019
Temperature: -7.0°C (19°F)
Dewpoint: -10.0°C (14°F) [RH = 79%]
Pressure (altimeter): 30.18 inches Hg (1022.1 mb)
[Sea-level pressure: 1022.4 mb]
Winds: variable direction winds at 2 MPH (2 knots; 1.0 m/s)
Visibility: 9 miles (14 km)
Ceiling: at least 12,000 feet AGL
Clouds: sky clear below 12,000 feet AGL
Weather: no significant weather observed at this time

METAR text: CYFC 190000Z AUTO 00000KT 9SM CLR M04/M12 A3015 RMK SLP214
Conditions at: CYFC (FREDERICTON AIRP, NB, CA) observed 0000 UTC 19 March 2019
Temperature: -4.0°C (25°F)
Dewpoint: -12.0°C (10°F) [RH = 54%]
Pressure (altimeter): 30.15 inches Hg (1021.1 mb)
[Sea-level pressure: 1021.4 mb]
Winds: calm
Visibility: 9 miles (14 km)
Ceiling: at least 12,000 feet AGL
Clouds: sky clear below 12,000 feet AGL
Weather: no significant weather observed at this time

METAR text: CYFC 182300Z AUTO 31003KT 9SM CLR M02/M13 A3012 RMK SLP204
Conditions at: CYFC (FREDERICTON AIRP, NB, CA) observed 2300 UTC 18 March 2019
Temperature: -2.0°C (28°F)
Dewpoint: -13.0°C ( 9°F) [RH = 43%]
Pressure (altimeter): 30.12 inches Hg (1020.1 mb)
[Sea-level pressure: 1020.4 mb]
Winds: from the NW (310 degrees) at 3 MPH (3 knots; 1.5 m/s)
Visibility: 9 miles (14 km)
Ceiling: at least 12,000 feet AGL
Clouds: sky clear below 12,000 feet AGL
Weather: no significant weather observed at this time

METAR text: CYFC 182200Z AUTO 31008KT 9SM CLR M01/M13 A3010 RMK SLP195
Conditions at: CYFC (FREDERICTON AIRP, NB, CA) observed 2200 UTC 18 March 2019
Temperature: -1.0°C (30°F)
Dewpoint: -13.0°C ( 9°F) [RH = 40%]
Pressure (altimeter): 30.10 inches Hg (1019.4 mb)
[Sea-level pressure: 1019.5 mb]
Winds: from the NW (310 degrees) at 9 MPH (8 knots; 4.1 m/s)
Visibility: 9 miles (14 km)
Ceiling: at least 12,000 feet AGL
Clouds: sky clear below 12,000 feet AGL
Weather: no significant weather observed at this time

METAR text: CYFC 182100Z AUTO 30009G15KT 9SM CLR M01/M12 A3008 RMK SLP188
Conditions at: CYFC (FREDERICTON AIRP, NB, CA) observed 2100 UTC 18 March 2019
Temperature: -1.0°C (30°F)
Dewpoint: -12.0°C (10°F) [RH = 43%]
Pressure (altimeter): 30.08 inches Hg (1018.7 mb)
[Sea-level pressure: 1018.8 mb]
Winds: from the WNW (300 degrees) at 10 MPH (9 knots; 4.6 m/s)
gusting to 17 MPH (15 knots; 7.7 m/s)
Visibility: 9 miles (14 km)
Ceiling: at least 12,000 feet AGL
Clouds: sky clear below 12,000 feet AGL
Weather: no significant weather observed at this time

METAR text: CYFC 182000Z AUTO 32011KT 270V340 9SM BKN060 M01/M12 A3006 RMK SLP183
Conditions at: CYFC (FREDERICTON AIRP, NB, CA) observed 2000 UTC 18 March 2019
Temperature: -1.0°C (30°F)
Dewpoint: -12.0°C (10°F) [RH = 43%]
Pressure (altimeter): 30.06 inches Hg (1018.0 mb)
[Sea-level pressure: 1018.3 mb]
Winds: from the NW (320 degrees) at 13 MPH (11 knots; 5.7 m/s)
Visibility: 9 miles (14 km)
Ceiling: 6000 feet AGL
Clouds: broken clouds at 6000 feet AGL
Weather: no significant weather observed at this time

METAR text: CYFC 181900Z AUTO 27009G15KT 220V320 9SM BKN060 BKN071 M01/M13 A3005 RMK SLP179
Conditions at: CYFC (FREDERICTON AIRP, NB, CA) observed 1900 UTC 18 March 2019
Temperature: -1.0°C (30°F)
Dewpoint: -13.0°C ( 9°F) [RH = 40%]
Pressure (altimeter): 30.05 inches Hg (1017.7 mb)
[Sea-level pressure: 1017.9 mb]
Winds: from the W (270 degrees) at 10 MPH (9 knots; 4.6 m/s)
gusting to 17 MPH (15 knots; 7.7 m/s)
Visibility: 9 miles (14 km)
Ceiling: 6000 feet AGL
Clouds: broken clouds at 6000 feet AGL
broken clouds at 7100 feet AGL
Weather: no significant weather observed at this time

METAR text: CYFC 181800Z AUTO 28012G19KT 230V310 9SM BKN060 M02/M14 A3005 RMK SLP179
Conditions at: CYFC (FREDERICTON AIRP, NB, CA) observed 1800 UTC 18 March 2019
Temperature: -2.0°C (28°F)
Dewpoint: -14.0°C ( 7°F) [RH = 39%]
Pressure (altimeter): 30.05 inches Hg (1017.7 mb)
[Sea-level pressure: 1017.9 mb]
Winds: from the W (280 degrees) at 14 MPH (12 knots; 6.2 m/s)
gusting to 22 MPH (19 knots; 9.8 m/s)
Visibility: 9 miles (14 km)
Ceiling: 6000 feet AGL
Clouds: broken clouds at 6000 feet AGL
Weather: no significant weather observed at this time

METAR text: CYFC 181700Z AUTO 29014G22KT 220V310 9SM BKN055 M02/M14 A3005 RMK SLP179
Conditions at: CYFC (FREDERICTON AIRP, NB, CA) observed 1700 UTC 18 March 2019
Temperature: -2.0°C (28°F)
Dewpoint: -14.0°C ( 7°F) [RH = 39%]
Pressure (altimeter): 30.05 inches Hg (1017.7 mb)
[Sea-level pressure: 1017.9 mb]
Winds: from the WNW (290 degrees) at 16 MPH (14 knots; 7.2 m/s)
gusting to 25 MPH (22 knots; 11.3 m/s)
Visibility: 9 miles (14 km)
Ceiling: 5500 feet AGL
Clouds: broken clouds at 5500 feet AGL
Weather: no significant weather observed at this time

METAR text: CYFC 181600Z AUTO 28010G17KT 230V310 9SM BKN049 M03/M14 A3005 RMK SLP179
Conditions at: CYFC (FREDERICTON AIRP, NB, CA) observed 1600 UTC 18 March 2019
Temperature: -3.0°C (27°F)
Dewpoint: -14.0°C ( 7°F) [RH = 42%]
Pressure (altimeter): 30.05 inches Hg (1017.7 mb)
[Sea-level pressure: 1017.9 mb]
Winds: from the W (280 degrees) at 12 MPH (10 knots; 5.1 m/s)
gusting to 20 MPH (17 knots; 8.7 m/s)
Visibility: 9 miles (14 km)
Ceiling: 4900 feet AGL
Clouds: broken clouds at 4900 feet AGL
Weather: no significant weather observed at this time

METAR text: CYFC 181500Z AUTO 28011G17KT 250V320 9SM CLR M04/M14 A3006 RMK SLP181
Conditions at: CYFC (FREDERICTON AIRP, NB, CA) observed 1500 UTC 18 March 2019
Temperature: -4.0°C (25°F)
Dewpoint: -14.0°C ( 7°F) [RH = 46%]
Pressure (altimeter): 30.06 inches Hg (1018.0 mb)
[Sea-level pressure: 1018.1 mb]
Winds: from the W (280 degrees) at 13 MPH (11 knots; 5.7 m/s)
gusting to 20 MPH (17 knots; 8.7 m/s)
Visibility: 9 miles (14 km)
Ceiling: at least 12,000 feet AGL
Clouds: sky clear below 12,000 feet AGL
Weather: no significant weather observed at this time

METAR text: CYFC 181400Z AUTO 27010G18KT 230V290 9SM CLR M05/M14 A3007 RMK SLP184
Conditions at: CYFC (FREDERICTON AIRP, NB, CA) observed 1400 UTC 18 March 2019
Temperature: -5.0°C (23°F)
Dewpoint: -14.0°C ( 7°F) [RH = 49%]
Pressure (altimeter): 30.07 inches Hg (1018.4 mb)
[Sea-level pressure: 1018.4 mb]
Winds: from the W (270 degrees) at 12 MPH (10 knots; 5.1 m/s)
gusting to 21 MPH (18 knots; 9.3 m/s)
Visibility: 9 miles (14 km)
Ceiling: at least 12,000 feet AGL
Clouds: sky clear below 12,000 feet AGL
Weather: no significant weather observed at this time

METAR text: CYFC 181300Z AUTO 24011KT 9SM CLR M06/M13 A3007 RMK SLP185
Conditions at: CYFC (FREDERICTON AIRP, NB, CA) observed 1300 UTC 18 March 2019
Temperature: -6.0°C (21°F)
Dewpoint: -13.0°C ( 9°F) [RH = 58%]
Pressure (altimeter): 30.07 inches Hg (1018.4 mb)
[Sea-level pressure: 1018.5 mb]
Winds: from the WSW (240 degrees) at 13 MPH (11 knots; 5.7 m/s)
Visibility: 9 miles (14 km)
Ceiling: at least 12,000 feet AGL
Clouds: sky clear below 12,000 feet AGL
Weather: no significant weather observed at this time

METAR text: CYFC 181200Z AUTO 22010KT 9SM CLR M09/M13 A3007 RMK SLP184
Conditions at: CYFC (FREDERICTON AIRP, NB, CA) observed 1200 UTC 18 March 2019
Temperature: -9.0°C (16°F)
Dewpoint: -13.0°C ( 9°F) [RH = 73%]
Pressure (altimeter): 30.07 inches Hg (1018.4 mb)
[Sea-level pressure: 1018.4 mb]
Winds: from the SW (220 degrees) at 12 MPH (10 knots; 5.1 m/s)
Visibility: 9 miles (14 km)
Ceiling: at least 12,000 feet AGL
Clouds: sky clear below 12,000 feet AGL
Weather: no significant weather observed at this time

METAR text: CYFC 181100Z AUTO 21007KT 9SM CLR M10/M14 A3005 RMK SLP179
Conditions at: CYFC (FREDERICTON AIRP, NB, CA) observed 1100 UTC 18 March 2019
Temperature: -10.0°C (14°F)
Dewpoint: -14.0°C ( 7°F) [RH = 72%]
Pressure (altimeter): 30.05 inches Hg (1017.7 mb)
[Sea-level pressure: 1017.9 mb]
Winds: from the SSW (210 degrees) at 8 MPH (7 knots; 3.6 m/s)
Visibility: 9 miles (14 km)
Ceiling: at least 12,000 feet AGL
Clouds: sky clear below 12,000 feet AGL
Weather: no significant weather observed at this time

METAR text: CYFC 181000Z AUTO 21008KT 9SM CLR M10/M14 A3004 RMK SLP175
Conditions at: CYFC (FREDERICTON AIRP, NB, CA) observed 1000 UTC 18 March 2019
Temperature: -10.0°C (14°F)
Dewpoint: -14.0°C ( 7°F) [RH = 72%]
Pressure (altimeter): 30.04 inches Hg (1017.4 mb)
[Sea-level pressure: 1017.5 mb]
Winds: from the SSW (210 degrees) at 9 MPH (8 knots; 4.1 m/s)
Visibility: 9 miles (14 km)
Ceiling: at least 12,000 feet AGL
Clouds: sky clear below 12,000 feet AGL
Weather: no significant weather observed at this time

METAR text: CYFC 180900Z AUTO 21008KT 9SM CLR M10/M14 A3002 RMK SLP170
Conditions at: CYFC (FREDERICTON AIRP, NB, CA) observed 0900 UTC 18 March 2019
Temperature: -10.0°C (14°F)
Dewpoint: -14.0°C ( 7°F) [RH = 72%]
Pressure (altimeter): 30.02 inches Hg (1016.7 mb)
[Sea-level pressure: 1017.0 mb]
Winds: from the SSW (210 degrees) at 9 MPH (8 knots; 4.1 m/s)
Visibility: 9 miles (14 km)
Ceiling: at least 12,000 feet AGL
Clouds: sky clear below 12,000 feet AGL
Weather: no significant weather observed at this time

METAR text: CYFC 180800Z AUTO 21007KT 9SM CLR M10/M14 A3001 RMK SLP165
Conditions at: CYFC (FREDERICTON AIRP, NB, CA) observed 0800 UTC 18 March 2019
Temperature: -10.0°C (14°F)
Dewpoint: -14.0°C ( 7°F) [RH = 72%]
Pressure (altimeter): 30.01 inches Hg (1016.3 mb)
[Sea-level pressure: 1016.5 mb]
Winds: from the SSW (210 degrees) at 8 MPH (7 knots; 3.6 m/s)
Visibility: 9 miles (14 km)
Ceiling: at least 12,000 feet AGL
Clouds: sky clear below 12,000 feet AGL
Weather: no significant weather observed at this time

METAR text: CYFC 180700Z AUTO 20007KT 9SM CLR M09/M13 A3001 RMK SLP166
Conditions at: CYFC (FREDERICTON AIRP, NB, CA) observed 0700 UTC 18 March 2019
Temperature: -9.0°C (16°F)
Dewpoint: -13.0°C ( 9°F) [RH = 73%]
Pressure (altimeter): 30.01 inches Hg (1016.3 mb)
[Sea-level pressure: 1016.6 mb]
Winds: from the SSW (200 degrees) at 8 MPH (7 knots; 3.6 m/s)
Visibility: 9 miles (14 km)
Ceiling: at least 12,000 feet AGL
Clouds: sky clear below 12,000 feet AGL
Weather: no significant weather observed at this time

METAR text: CYFC 180600Z AUTO 23008KT 9SM CLR M09/M14 A3002 RMK SLP169
Conditions at: CYFC (FREDERICTON AIRP, NB, CA) observed 0600 UTC 18 March 2019
Temperature: -9.0°C (16°F)
Dewpoint: -14.0°C ( 7°F) [RH = 67%]
Pressure (altimeter): 30.02 inches Hg (1016.7 mb)
[Sea-level pressure: 1016.9 mb]
Winds: from the SW (230 degrees) at 9 MPH (8 knots; 4.1 m/s)
Visibility: 9 miles (14 km)
Ceiling: at least 12,000 feet AGL
Clouds: sky clear below 12,000 feet AGL
Weather: no significant weather observed at this time

METAR text: CYFC 180500Z AUTO 22007KT 9SM CLR M09/M14 A3002 RMK SLP170
Conditions at: CYFC (FREDERICTON AIRP, NB, CA) observed 0500 UTC 18 March 2019
Temperature: -9.0°C (16°F)
Dewpoint: -14.0°C ( 7°F) [RH = 67%]
Pressure (altimeter): 30.02 inches Hg (1016.7 mb)
[Sea-level pressure: 1017.0 mb]
Winds: from the SW (220 degrees) at 8 MPH (7 knots; 3.6 m/s)
Visibility: 9 miles (14 km)
Ceiling: at least 12,000 feet AGL
Clouds: sky clear below 12,000 feet AGL
Weather: no significant weather observed at this time

METAR text: CYFC 180400Z AUTO 22007KT 9SM CLR M08/M14 A3002 RMK SLP170
Conditions at: CYFC (FREDERICTON AIRP, NB, CA) observed 0400 UTC 18 March 2019
Temperature: -8.0°C (18°F)
Dewpoint: -14.0°C ( 7°F) [RH = 62%]
Pressure (altimeter): 30.02 inches Hg (1016.7 mb)
[Sea-level pressure: 1017.0 mb]
Winds: from the SW (220 degrees) at 8 MPH (7 knots; 3.6 m/s)
Visibility: 9 miles (14 km)
Ceiling: at least 12,000 feet AGL
Clouds: sky clear below 12,000 feet AGL
Weather: no significant weather observed at this time

METAR text: CYFC 180300Z AUTO 22005KT 9SM CLR M08/M13 A3002 RMK SLP169
Conditions at: CYFC (FREDERICTON AIRP, NB, CA) observed 0300 UTC 18 March 2019
Temperature: -8.0°C (18°F)
Dewpoint: -13.0°C ( 9°F) [RH = 67%]
Pressure (altimeter): 30.02 inches Hg (1016.7 mb)
[Sea-level pressure: 1016.9 mb]
Winds: from the SW (220 degrees) at 6 MPH (5 knots; 2.6 m/s)
Visibility: 9 miles (14 km)
Ceiling: at least 12,000 feet AGL
Clouds: sky clear below 12,000 feet AGL
Weather: no significant weather observed at this time

METAR text: CYFC 180200Z AUTO 25006KT 9SM CLR M06/M15 A3001 RMK SLP167
Conditions at: CYFC (FREDERICTON AIRP, NB, CA) observed 0200 UTC 18 March 2019
Temperature: -6.0°C (21°F)
Dewpoint: -15.0°C ( 5°F) [RH = 49%]
Pressure (altimeter): 30.01 inches Hg (1016.3 mb)
[Sea-level pressure: 1016.7 mb]
Winds: from the WSW (250 degrees) at 7 MPH (6 knots; 3.1 m/s)
Visibility: 9 miles (14 km)
Ceiling: at least 12,000 feet AGL
Clouds: sky clear below 12,000 feet AGL
Weather: no significant weather observed at this time

METAR text: CYFC 180100Z AUTO 28007KT 9SM CLR M05/M15 A3000 RMK SLP162
Conditions at: CYFC (FREDERICTON AIRP, NB, CA) observed 0100 UTC 18 March 2019
Temperature: -5.0°C (23°F)
Dewpoint: -15.0°C ( 5°F) [RH = 45%]
Pressure (altimeter): 30.00 inches Hg (1016.0 mb)
[Sea-level pressure: 1016.2 mb]
Winds: from the W (280 degrees) at 8 MPH (7 knots; 3.6 m/s)
Visibility: 9 miles (14 km)
Ceiling: at least 12,000 feet AGL
Clouds: sky clear below 12,000 feet AGL
Weather: no significant weather observed at this time

METAR text: CYFC 180000Z AUTO 28009G17KT 9SM CLR M04/M15 A2998 RMK SLP154
Conditions at: CYFC (FREDERICTON AIRP, NB, CA) observed 0000 UTC 18 March 2019
Temperature: -4.0°C (25°F)
Dewpoint: -15.0°C ( 5°F) [RH = 42%]
Pressure (altimeter): 29.98 inches Hg (1015.3 mb)
[Sea-level pressure: 1015.4 mb]
Winds: from the W (280 degrees) at 10 MPH (9 knots; 4.6 m/s)
gusting to 20 MPH (17 knots; 8.7 m/s)
Visibility: 9 miles (14 km)
Ceiling: at least 12,000 feet AGL
Clouds: sky clear below 12,000 feet AGL
Weather: no significant weather observed at this time

METAR text: CYFC 172300Z AUTO 29005KT 260V320 9SM CLR M03/M16 A2994 RMK SLP142
Conditions at: CYFC (FREDERICTON AIRP, NB, CA) observed 2300 UTC 17 March 2019
Temperature: -3.0°C (27°F)
Dewpoint: -16.0°C ( 3°F) [RH = 36%]
Pressure (altimeter): 29.94 inches Hg (1014.0 mb)
[Sea-level pressure: 1014.2 mb]
Winds: from the WNW (290 degrees) at 6 MPH (5 knots; 2.6 m/s)
Visibility: 9 miles (14 km)
Ceiling: at least 12,000 feet AGL
Clouds: sky clear below 12,000 feet AGL
Weather: no significant weather observed at this time

METAR text: CYFC 172200Z AUTO 30009G16KT 250V330 9SM CLR M02/M16 A2991 RMK SLP132
Conditions at: CYFC (FREDERICTON AIRP, NB, CA) observed 2200 UTC 17 March 2019
Temperature: -2.0°C (28°F)
Dewpoint: -16.0°C ( 3°F) [RH = 33%]
Pressure (altimeter): 29.91 inches Hg (1013.0 mb)
[Sea-level pressure: 1013.2 mb]
Winds: from the WNW (300 degrees) at 10 MPH (9 knots; 4.6 m/s)
gusting to 18 MPH (16 knots; 8.2 m/s)
Visibility: 9 miles (14 km)
Ceiling: at least 12,000 feet AGL
Clouds: sky clear below 12,000 feet AGL
Weather: no significant weather observed at this time

METAR text: CYFC 172100Z AUTO 25015G21KT 230V320 9SM CLR M02/M16 A2989 RMK SLP123
Conditions at: CYFC (FREDERICTON AIRP, NB, CA) observed 2100 UTC 17 March 2019
Temperature: -2.0°C (28°F)
Dewpoint: -16.0°C ( 3°F) [RH = 33%]
Pressure (altimeter): 29.89 inches Hg (1012.3 mb)
[Sea-level pressure: 1012.3 mb]
Winds: from the WSW (250 degrees) at 17 MPH (15 knots; 7.7 m/s)
gusting to 24 MPH (21 knots; 10.8 m/s)
Visibility: 9 miles (14 km)
Ceiling: at least 12,000 feet AGL
Clouds: sky clear below 12,000 feet AGL
Weather: no significant weather observed at this time

METAR text: CYFC 172000Z AUTO 28014G21KT 9SM CLR M01/M16 A2988 RMK SLP121
Conditions at: CYFC (FREDERICTON AIRP, NB, CA) observed 2000 UTC 17 March 2019
Temperature: -1.0°C (30°F)
Dewpoint: -16.0°C ( 3°F) [RH = 31%]
Pressure (altimeter): 29.88 inches Hg (1011.9 mb)
[Sea-level pressure: 1012.1 mb]
Winds: from the W (280 degrees) at 16 MPH (14 knots; 7.2 m/s)
gusting to 24 MPH (21 knots; 10.8 m/s)
Visibility: 9 miles (14 km)
Ceiling: at least 12,000 feet AGL
Clouds: sky clear below 12,000 feet AGL
Weather: no significant weather observed at this time

METAR text: CYFC 171900Z AUTO 28015G26KT 250V310 9SM FEW060 M01/M15 A2987 RMK SLP117
Conditions at: CYFC (FREDERICTON AIRP, NB, CA) observed 1900 UTC 17 March 2019
Temperature: -1.0°C (30°F)
Dewpoint: -15.0°C ( 5°F) [RH = 34%]
Pressure (altimeter): 29.87 inches Hg (1011.6 mb)
[Sea-level pressure: 1011.7 mb]
Winds: from the W (280 degrees) at 17 MPH (15 knots; 7.7 m/s)
gusting to 30 MPH (26 knots; 13.4 m/s)
Visibility: 9 miles (14 km)
Ceiling: at least 12,000 feet AGL
Clouds: few clouds at 6000 feet AGL
Weather: no significant weather observed at this time

METAR text: CYFC 171800Z AUTO 29013G20KT 230V310 9SM FEW055 M01/M15 A2987 RMK SLP118
Conditions at: CYFC (FREDERICTON AIRP, NB, CA) observed 1800 UTC 17 March 2019
Temperature: -1.0°C (30°F)
Dewpoint: -15.0°C ( 5°F) [RH = 34%]
Pressure (altimeter): 29.87 inches Hg (1011.6 mb)
[Sea-level pressure: 1011.8 mb]
Winds: from the WNW (290 degrees) at 15 MPH (13 knots; 6.7 m/s)
gusting to 23 MPH (20 knots; 10.3 m/s)
Visibility: 9 miles (14 km)
Ceiling: at least 12,000 feet AGL
Clouds: few clouds at 5500 feet AGL
Weather: no significant weather observed at this time

Forecast for: CYFC (FREDERICTON AIRP, NB, CA)
Text: TAF CYFC 190538Z 1906/1918 VRB03KT P6SM FEW060
Forecast period: 0600 to 1400 UTC 19 March 2019
Forecast type: FROM: standard forecast or significant change
Winds: variable direction winds at 3 MPH (3 knots; 1.5 m/s)
Visibility: 6 or more miles 10+ km)
Ceiling: at least 12,000 feet AGL
Clouds: few clouds at 6000 feet AGL
Weather: no significant weather forecast for this period
Text: BECMG 1914/1916 28007KT RMK FCST BASED ON AUTO OBS. NXT FCST BY 191200Z
Forecast period: 1400 to 1800 UTC 19 March 2019
Forecast type: BECOMING: Conditions expected to become as follows by 1600 UTC 19 March 2019
Winds: from the W (280 degrees) at 8 MPH (7 knots; 3.6 m/s)
Visibility: 6 or more miles 10+ km)
Ceiling: at least 12,000 feet AGL
Clouds: few clouds at 6000 feet AGL
Weather: no significant weather forecast for this period